Terminal Aerodrome Forecast
Issued by NWS St Louis, MO

Home | Current Version | Previous Version | Text Only | Print | Product List | Glossary On
Versions: 1 2 3 4 5 6 7 8 9 10 11 12 13 14 15 16 17 18 19 20 21 22 23 24 25 26 27 28 29 30 31
697
FTUS43 KLSX 250258 AAA
TAFSTL
TAF AMD
KSTL 250258Z 2503/2606 28011G20KT P6SM BKN040
     FM250500 29015G24KT P6SM OVC025
     FM250800 30015G24KT P6SM OVC015
     FM251500 30015G24KT P6SM BKN025
     FM251700 30013G22KT P6SM SCT120
     FM260000 30007KT P6SM FEW250=

USA.gov is the U.S. government's official web portal to all federal, state and local government web resources and services.